Darlington, Missouri
Current Conditions -  °F | °C
As of 1:53 PM on Sunday 25 Jan 2015 (Local Time) from KLWD Reporting Station
Overcast Overcast  
Wind Chill: 24°   Ceiling: 1300
Heat Index: 34°   Visibility: 10mi
Dew Point: 30°   Wind: 16mph
Humidity: 85%   Direction: 10°N
Pressure: 29.88"   Gusts: 31mph
Location:  40.2°N, 94.4°W
Report Text: KLWD 251953Z AUTO 01014G27KT 10SM OVC013 01/M01 A2988 RMK AO2 PK WND 01027/1948 SLP127 T00111011
Loading
Personal Weather Stations






























Interactive Weather Map New forecast layout! Learn more

10-Day Weather Forecast

Advertisements
Track Severe Weather on mobile